Weather search by city/station or by Location Indicator (LI)

Please do one of the following:
a) Search the weather station by station, city or country name and click Search button
b) Enter the four-character Location Indicator (i.e. EFHK = Helsinki) and click Submit button

a) Search the station:   

b) Location Indicator:  

The ICAO Location Indicator code is explained here.

METAR = EFHK 212320Z 05005KT CAVOK 01/M00 Q1001 NOSIG

STATIONEFHK
NAMEHelsinki/Vantaa Arpt, UU, FI
OBSERVED22.04.2021 02:20 (21.04.2021 23:20 UTC), 22 min ago
TEMPERATURE1.0°C ( 34°F)
WINDCHILL-2 °C (28 °F)
WINDNE (50 degrees) at 6 MPH (5 knots; 2.6 m/s)
HUMIDITY93%
PRESSURE1001 hPa